sensor_id;sensor_type;location;lat;lon;timestamp;P1;durP1;ratioP1;P2;durP2;ratioP2
10523;SDS011;5310;48.638;9.060;2023-12-28T00:00:27;1.20;;;1.20;;
10523;SDS011;5310;48.638;9.060;2023-12-28T00:02:53;1.20;;;1.20;;
10523;SDS011;5310;48.638;9.060;2023-12-28T00:05:19;1.20;;;1.20;;
10523;SDS011;5310;48.638;9.060;2023-12-28T00:07:45;1.10;;;1.10;;
10523;SDS011;5310;48.638;9.060;2023-12-28T00:10:11;1.20;;;1.20;;
10523;SDS011;5310;48.638;9.060;2023-12-28T00:12:40;1.10;;;1.10;;
10523;SDS011;5310;48.638;9.060;2023-12-28T00:15:06;1.17;;;1.17;;
10523;SDS011;5310;48.638;9.060;2023-12-28T00:17:32;1.20;;;1.20;;
10523;SDS011;5310;48.638;9.060;2023-12-28T00:19:58;1.20;;;1.20;;
10523;SDS011;5310;48.638;9.060;2023-12-28T00:22:24;1.20;;;1.20;;
10523;SDS011;5310;48.638;9.060;2023-12-28T00:24:50;1.20;;;1.20;;
10523;SDS011;5310;48.638;9.060;2023-12-28T00:27:16;1.10;;;1.10;;
10523;SDS011;5310;48.638;9.060;2023-12-28T00:29:42;1.20;;;1.20;;
10523;SDS011;5310;48.638;9.060;2023-12-28T00:32:08;1.10;;;1.10;;
10523;SDS011;5310;48.638;9.060;2023-12-28T00:34:34;1.20;;;1.20;;
10523;SDS011;5310;48.638;9.060;2023-12-28T00:37:01;1.10;;;1.10;;
10523;SDS011;5310;48.638;9.060;2023-12-28T00:39:27;1.20;;;1.20;;
10523;SDS011;5310;48.638;9.060;2023-12-28T00:41:53;1.20;;;1.20;;
10523;SDS011;5310;48.638;9.060;2023-12-28T00:44:19;1.20;;;1.20;;
10523;SDS011;5310;48.638;9.060;2023-12-28T00:46:44;1.10;;;1.10;;
10523;SDS011;5310;48.638;9.060;2023-12-28T00:49:10;1.20;;;1.20;;
10523;SDS011;5310;48.638;9.060;2023-12-28T00:51:36;1.20;;;1.20;;
10523;SDS011;5310;48.638;9.060;2023-12-28T00:54:02;1.10;;;1.10;;
10523;SDS011;5310;48.638;9.060;2023-12-28T00:56:28;1.10;;;1.10;;
10523;SDS011;5310;48.638;9.060;2023-12-28T00:58:57;1.20;;;1.20;;
10523;SDS011;5310;48.638;9.060;2023-12-28T01:01:23;1.20;;;1.20;;
10523;SDS011;5310;48.638;9.060;2023-12-28T01:03:48;1.30;;;1.30;;
10523;SDS011;5310;48.638;9.060;2023-12-28T01:06:14;1.10;;;1.10;;
10523;SDS011;5310;48.638;9.060;2023-12-28T01:08:40;1.10;;;1.10;;
10523;SDS011;5310;48.638;9.060;2023-12-28T01:11:06;1.20;;;1.20;;
10523;SDS011;5310;48.638;9.060;2023-12-28T01:13:33;1.20;;;1.20;;
10523;SDS011;5310;48.638;9.060;2023-12-28T01:16:00;1.20;;;1.20;;
10523;SDS011;5310;48.638;9.060;2023-12-28T01:18:26;1.20;;;1.20;;
10523;SDS011;5310;48.638;9.060;2023-12-28T01:20:52;1.10;;;1.10;;
10523;SDS011;5310;48.638;9.060;2023-12-28T01:23:18;1.20;;;1.20;;
10523;SDS011;5310;48.638;9.060;2023-12-28T01:25:44;1.20;;;1.20;;
10523;SDS011;5310;48.638;9.060;2023-12-28T01:28:10;1.20;;;1.20;;
10523;SDS011;5310;48.638;9.060;2023-12-28T01:30:36;1.20;;;1.20;;
10523;SDS011;5310;48.638;9.060;2023-12-28T01:33:02;1.20;;;1.20;;
10523;SDS011;5310;48.638;9.060;2023-12-28T01:35:28;1.10;;;1.10;;
10523;SDS011;5310;48.638;9.060;2023-12-28T01:37:54;1.20;;;1.20;;
10523;SDS011;5310;48.638;9.060;2023-12-28T01:40:20;1.20;;;1.20;;
10523;SDS011;5310;48.638;9.060;2023-12-28T01:42:46;1.10;;;1.10;;
10523;SDS011;5310;48.638;9.060;2023-12-28T01:45:12;1.20;;;1.20;;
10523;SDS011;5310;48.638;9.060;2023-12-28T01:47:38;1.00;;;1.00;;
10523;SDS011;5310;48.638;9.060;2023-12-28T01:50:05;1.20;;;1.20;;
10523;SDS011;5310;48.638;9.060;2023-12-28T01:52:31;1.10;;;1.10;;
10523;SDS011;5310;48.638;9.060;2023-12-28T01:54:57;1.20;;;1.20;;
10523;SDS011;5310;48.638;9.060;2023-12-28T01:57:23;1.20;;;1.20;;
10523;SDS011;5310;48.638;9.060;2023-12-28T01:59:50;1.10;;;1.10;;
10523;SDS011;5310;48.638;9.060;2023-12-28T02:02:17;1.20;;;1.20;;
10523;SDS011;5310;48.638;9.060;2023-12-28T02:04:43;1.20;;;1.20;;
10523;SDS011;5310;48.638;9.060;2023-12-28T02:07:09;1.20;;;1.20;;
10523;SDS011;5310;48.638;9.060;2023-12-28T02:09:37;1.10;;;1.10;;
10523;SDS011;5310;48.638;9.060;2023-12-28T02:12:03;1.20;;;1.20;;
10523;SDS011;5310;48.638;9.060;2023-12-28T02:14:29;1.10;;;1.10;;
10523;SDS011;5310;48.638;9.060;2023-12-28T02:17:01;1.20;;;1.20;;
10523;SDS011;5310;48.638;9.060;2023-12-28T02:19:40;1.10;;;1.10;;
10523;SDS011;5310;48.638;9.060;2023-12-28T02:22:09;1.20;;;1.20;;
10523;SDS011;5310;48.638;9.060;2023-12-28T02:27:47;1.20;;;1.20;;
10523;SDS011;5310;48.638;9.060;2023-12-28T02:30:15;1.17;;;1.17;;
10523;SDS011;5310;48.638;9.060;2023-12-28T02:35:31;1.20;;;1.20;;
10523;SDS011;5310;48.638;9.060;2023-12-28T02:37:59;1.30;;;1.30;;
10523;SDS011;5310;48.638;9.060;2023-12-28T02:40:28;1.20;;;1.20;;
10523;SDS011;5310;48.638;9.060;2023-12-28T02:42:56;1.20;;;1.20;;
10523;SDS011;5310;48.638;9.060;2023-12-28T02:45:22;1.20;;;1.20;;
10523;SDS011;5310;48.638;9.060;2023-12-28T02:47:48;1.10;;;1.10;;
10523;SDS011;5310;48.638;9.060;2023-12-28T02:50:14;1.20;;;1.20;;
10523;SDS011;5310;48.638;9.060;2023-12-28T02:52:40;1.20;;;1.20;;
10523;SDS011;5310;48.638;9.060;2023-12-28T02:55:06;1.20;;;1.20;;
10523;SDS011;5310;48.638;9.060;2023-12-28T02:57:32;1.20;;;1.20;;
10523;SDS011;5310;48.638;9.060;2023-12-28T02:59:57;1.20;;;1.20;;
10523;SDS011;5310;48.638;9.060;2023-12-28T03:02:26;1.03;;;1.03;;
10523;SDS011;5310;48.638;9.060;2023-12-28T03:04:52;1.00;;;1.00;;
10523;SDS011;5310;48.638;9.060;2023-12-28T03:07:18;1.00;;;1.00;;
10523;SDS011;5310;48.638;9.060;2023-12-28T03:09:44;1.10;;;1.10;;
10523;SDS011;5310;48.638;9.060;2023-12-28T03:12:10;1.10;;;1.10;;
10523;SDS011;5310;48.638;9.060;2023-12-28T03:14:36;1.10;;;1.10;;
10523;SDS011;5310;48.638;9.060;2023-12-28T03:17:02;1.10;;;1.10;;
10523;SDS011;5310;48.638;9.060;2023-12-28T03:19:28;1.10;;;1.10;;
10523;SDS011;5310;48.638;9.060;2023-12-28T03:21:54;1.10;;;1.10;;
10523;SDS011;5310;48.638;9.060;2023-12-28T03:24:20;1.20;;;1.20;;
10523;SDS011;5310;48.638;9.060;2023-12-28T03:26:46;1.10;;;1.10;;
10523;SDS011;5310;48.638;9.060;2023-12-28T03:29:11;1.00;;;1.00;;
10523;SDS011;5310;48.638;9.060;2023-12-28T03:31:40;1.10;;;1.10;;
10523;SDS011;5310;48.638;9.060;2023-12-28T03:34:06;1.10;;;1.10;;
10523;SDS011;5310;48.638;9.060;2023-12-28T03:36:32;1.20;;;1.20;;
10523;SDS011;5310;48.638;9.060;2023-12-28T03:38:58;1.20;;;1.20;;
10523;SDS011;5310;48.638;9.060;2023-12-28T03:41:24;1.10;;;1.10;;
10523;SDS011;5310;48.638;9.060;2023-12-28T03:43:50;1.07;;;1.07;;
10523;SDS011;5310;48.638;9.060;2023-12-28T03:46:16;1.10;;;1.10;;
10523;SDS011;5310;48.638;9.060;2023-12-28T03:48:42;1.10;;;1.10;;
10523;SDS011;5310;48.638;9.060;2023-12-28T03:51:08;1.10;;;1.10;;
10523;SDS011;5310;48.638;9.060;2023-12-28T03:53:39;1.10;;;1.10;;
10523;SDS011;5310;48.638;9.060;2023-12-28T03:56:05;1.10;;;1.10;;
10523;SDS011;5310;48.638;9.060;2023-12-28T03:58:31;1.00;;;1.00;;
10523;SDS011;5310;48.638;9.060;2023-12-28T04:00:57;1.10;;;1.10;;
10523;SDS011;5310;48.638;9.060;2023-12-28T04:03:23;1.10;;;1.10;;
10523;SDS011;5310;48.638;9.060;2023-12-28T04:05:49;1.10;;;1.10;;
10523;SDS011;5310;48.638;9.060;2023-12-28T04:08:14;1.00;;;1.00;;
10523;SDS011;5310;48.638;9.060;2023-12-28T04:10:40;1.10;;;1.10;;
10523;SDS011;5310;48.638;9.060;2023-12-28T04:13:06;1.00;;;1.00;;
10523;SDS011;5310;48.638;9.060;2023-12-28T04:15:32;1.00;;;1.00;;
10523;SDS011;5310;48.638;9.060;2023-12-28T04:17:58;1.10;;;1.10;;
10523;SDS011;5310;48.638;9.060;2023-12-28T04:20:24;1.00;;;1.00;;
10523;SDS011;5310;48.638;9.060;2023-12-28T04:22:50;1.00;;;1.00;;
10523;SDS011;5310;48.638;9.060;2023-12-28T04:25:16;1.10;;;1.10;;
10523;SDS011;5310;48.638;9.060;2023-12-28T04:27:41;1.10;;;1.10;;
10523;SDS011;5310;48.638;9.060;2023-12-28T04:30:07;1.20;;;1.20;;
10523;SDS011;5310;48.638;9.060;2023-12-28T04:32:36;1.10;;;1.10;;
10523;SDS011;5310;48.638;9.060;2023-12-28T04:35:02;1.00;;;1.00;;
10523;SDS011;5310;48.638;9.060;2023-12-28T04:37:28;1.13;;;1.13;;
10523;SDS011;5310;48.638;9.060;2023-12-28T04:39:55;1.20;;;1.20;;
10523;SDS011;5310;48.638;9.060;2023-12-28T04:42:22;1.20;;;1.20;;
10523;SDS011;5310;48.638;9.060;2023-12-28T04:44:47;1.10;;;1.10;;
10523;SDS011;5310;48.638;9.060;2023-12-28T04:47:13;1.10;;;1.10;;
10523;SDS011;5310;48.638;9.060;2023-12-28T04:49:39;1.10;;;1.10;;
10523;SDS011;5310;48.638;9.060;2023-12-28T04:52:05;1.20;;;1.20;;
10523;SDS011;5310;48.638;9.060;2023-12-28T04:54:31;1.07;;;1.07;;
10523;SDS011;5310;48.638;9.060;2023-12-28T04:57:00;1.10;;;1.10;;
10523;SDS011;5310;48.638;9.060;2023-12-28T04:59:26;1.10;;;1.10;;
10523;SDS011;5310;48.638;9.060;2023-12-28T05:01:52;1.00;;;1.00;;
10523;SDS011;5310;48.638;9.060;2023-12-28T05:04:18;1.00;;;1.00;;
10523;SDS011;5310;48.638;9.060;2023-12-28T05:06:44;1.10;;;1.10;;
10523;SDS011;5310;48.638;9.060;2023-12-28T05:09:10;1.00;;;1.00;;
10523;SDS011;5310;48.638;9.060;2023-12-28T05:11:36;1.07;;;1.07;;
10523;SDS011;5310;48.638;9.060;2023-12-28T05:14:02;1.00;;;1.00;;
10523;SDS011;5310;48.638;9.060;2023-12-28T05:16:28;0.90;;;0.90;;
10523;SDS011;5310;48.638;9.060;2023-12-28T05:18:53;0.93;;;0.93;;
10523;SDS011;5310;48.638;9.060;2023-12-28T05:21:19;1.00;;;1.00;;
10523;SDS011;5310;48.638;9.060;2023-12-28T05:23:46;1.10;;;1.10;;
10523;SDS011;5310;48.638;9.060;2023-12-28T05:26:11;1.10;;;1.10;;
10523;SDS011;5310;48.638;9.060;2023-12-28T05:28:37;1.10;;;1.10;;
10523;SDS011;5310;48.638;9.060;2023-12-28T05:31:03;1.00;;;1.00;;
10523;SDS011;5310;48.638;9.060;2023-12-28T05:33:30;1.10;;;1.10;;
10523;SDS011;5310;48.638;9.060;2023-12-28T05:35:57;1.10;;;1.10;;
10523;SDS011;5310;48.638;9.060;2023-12-28T05:38:23;1.10;;;1.10;;
10523;SDS011;5310;48.638;9.060;2023-12-28T05:40:48;1.00;;;1.00;;
10523;SDS011;5310;48.638;9.060;2023-12-28T05:43:14;1.00;;;1.00;;
10523;SDS011;5310;48.638;9.060;2023-12-28T05:45:40;1.10;;;1.10;;
10523;SDS011;5310;48.638;9.060;2023-12-28T05:48:06;1.10;;;1.10;;
10523;SDS011;5310;48.638;9.060;2023-12-28T05:50:32;1.10;;;1.10;;
10523;SDS011;5310;48.638;9.060;2023-12-28T05:52:58;1.10;;;1.10;;
10523;SDS011;5310;48.638;9.060;2023-12-28T05:55:24;1.10;;;1.10;;
10523;SDS011;5310;48.638;9.060;2023-12-28T05:57:50;0.93;;;0.93;;
10523;SDS011;5310;48.638;9.060;2023-12-28T06:00:16;1.00;;;1.00;;
10523;SDS011;5310;48.638;9.060;2023-12-28T06:02:43;1.10;;;1.10;;
10523;SDS011;5310;48.638;9.060;2023-12-28T06:05:11;1.10;;;1.10;;
10523;SDS011;5310;48.638;9.060;2023-12-28T06:07:37;1.00;;;1.00;;
10523;SDS011;5310;48.638;9.060;2023-12-28T06:10:03;1.00;;;1.00;;
10523;SDS011;5310;48.638;9.060;2023-12-28T06:12:29;1.00;;;1.00;;
10523;SDS011;5310;48.638;9.060;2023-12-28T06:14:55;1.00;;;1.00;;
10523;SDS011;5310;48.638;9.060;2023-12-28T06:17:21;0.90;;;0.90;;
10523;SDS011;5310;48.638;9.060;2023-12-28T06:19:47;1.00;;;1.00;;
10523;SDS011;5310;48.638;9.060;2023-12-28T06:22:14;1.00;;;1.00;;
10523;SDS011;5310;48.638;9.060;2023-12-28T06:24:40;1.00;;;1.00;;
10523;SDS011;5310;48.638;9.060;2023-12-28T06:27:06;1.00;;;1.00;;
10523;SDS011;5310;48.638;9.060;2023-12-28T06:29:32;1.00;;;1.00;;
10523;SDS011;5310;48.638;9.060;2023-12-28T06:31:58;1.10;;;1.10;;
10523;SDS011;5310;48.638;9.060;2023-12-28T06:34:24;1.00;;;1.00;;
10523;SDS011;5310;48.638;9.060;2023-12-28T06:36:51;0.90;;;0.90;;
10523;SDS011;5310;48.638;9.060;2023-12-28T06:39:17;1.00;;;1.00;;
10523;SDS011;5310;48.638;9.060;2023-12-28T06:41:46;1.00;;;1.00;;
10523;SDS011;5310;48.638;9.060;2023-12-28T06:44:13;1.03;;;1.03;;
10523;SDS011;5310;48.638;9.060;2023-12-28T06:46:39;0.90;;;0.90;;
10523;SDS011;5310;48.638;9.060;2023-12-28T06:49:05;0.90;;;0.90;;
10523;SDS011;5310;48.638;9.060;2023-12-28T06:51:31;1.00;;;1.00;;
10523;SDS011;5310;48.638;9.060;2023-12-28T06:53:58;1.00;;;1.00;;
10523;SDS011;5310;48.638;9.060;2023-12-28T06:56:24;0.90;;;0.90;;
10523;SDS011;5310;48.638;9.060;2023-12-28T06:58:50;1.00;;;1.00;;
10523;SDS011;5310;48.638;9.060;2023-12-28T07:01:16;1.00;;;1.00;;
10523;SDS011;5310;48.638;9.060;2023-12-28T07:03:42;1.10;;;1.10;;
10523;SDS011;5310;48.638;9.060;2023-12-28T07:06:08;1.10;;;1.10;;
10523;SDS011;5310;48.638;9.060;2023-12-28T07:08:34;1.10;;;1.10;;
10523;SDS011;5310;48.638;9.060;2023-12-28T07:11:01;1.10;;;1.10;;
10523;SDS011;5310;48.638;9.060;2023-12-28T07:13:27;1.10;;;1.10;;
10523;SDS011;5310;48.638;9.060;2023-12-28T07:15:54;0.90;;;0.90;;
10523;SDS011;5310;48.638;9.060;2023-12-28T07:18:20;1.00;;;1.00;;
10523;SDS011;5310;48.638;9.060;2023-12-28T07:20:46;0.90;;;0.90;;
10523;SDS011;5310;48.638;9.060;2023-12-28T07:23:12;0.90;;;0.90;;
10523;SDS011;5310;48.638;9.060;2023-12-28T07:25:38;1.00;;;1.00;;
10523;SDS011;5310;48.638;9.060;2023-12-28T07:28:04;0.90;;;0.90;;
10523;SDS011;5310;48.638;9.060;2023-12-28T07:30:30;0.90;;;0.90;;
10523;SDS011;5310;48.638;9.060;2023-12-28T07:32:56;1.00;;;1.00;;
10523;SDS011;5310;48.638;9.060;2023-12-28T07:35:22;1.00;;;1.00;;
10523;SDS011;5310;48.638;9.060;2023-12-28T07:37:48;0.90;;;0.90;;
10523;SDS011;5310;48.638;9.060;2023-12-28T07:40:14;1.00;;;1.00;;
10523;SDS011;5310;48.638;9.060;2023-12-28T07:42:40;0.90;;;0.90;;
10523;SDS011;5310;48.638;9.060;2023-12-28T07:45:06;1.00;;;1.00;;
10523;SDS011;5310;48.638;9.060;2023-12-28T07:47:32;1.00;;;1.00;;
10523;SDS011;5310;48.638;9.060;2023-12-28T07:49:58;0.97;;;0.97;;
10523;SDS011;5310;48.638;9.060;2023-12-28T07:52:25;1.00;;;1.00;;
10523;SDS011;5310;48.638;9.060;2023-12-28T07:54:51;1.00;;;1.00;;
10523;SDS011;5310;48.638;9.060;2023-12-28T07:57:17;1.00;;;1.00;;
10523;SDS011;5310;48.638;9.060;2023-12-28T07:59:43;1.00;;;1.00;;
10523;SDS011;5310;48.638;9.060;2023-12-28T08:02:09;1.00;;;1.00;;
10523;SDS011;5310;48.638;9.060;2023-12-28T08:04:35;0.90;;;0.90;;
10523;SDS011;5310;48.638;9.060;2023-12-28T08:07:01;0.90;;;0.90;;
10523;SDS011;5310;48.638;9.060;2023-12-28T08:09:27;0.97;;;0.97;;
10523;SDS011;5310;48.638;9.060;2023-12-28T08:11:53;0.90;;;0.90;;
10523;SDS011;5310;48.638;9.060;2023-12-28T08:14:19;0.97;;;0.97;;
10523;SDS011;5310;48.638;9.060;2023-12-28T08:16:44;0.90;;;0.90;;
10523;SDS011;5310;48.638;9.060;2023-12-28T08:19:10;1.00;;;1.00;;
10523;SDS011;5310;48.638;9.060;2023-12-28T08:21:36;1.00;;;1.00;;
10523;SDS011;5310;48.638;9.060;2023-12-28T08:24:02;0.93;;;0.93;;
10523;SDS011;5310;48.638;9.060;2023-12-28T08:26:28;0.90;;;0.90;;
10523;SDS011;5310;48.638;9.060;2023-12-28T08:28:54;1.00;;;1.00;;
10523;SDS011;5310;48.638;9.060;2023-12-28T08:31:20;0.90;;;0.90;;
10523;SDS011;5310;48.638;9.060;2023-12-28T08:33:46;0.90;;;0.90;;
10523;SDS011;5310;48.638;9.060;2023-12-28T08:36:12;1.00;;;1.00;;
10523;SDS011;5310;48.638;9.060;2023-12-28T08:38:38;1.00;;;1.00;;
10523;SDS011;5310;48.638;9.060;2023-12-28T08:41:04;0.90;;;0.90;;
10523;SDS011;5310;48.638;9.060;2023-12-28T08:43:34;0.90;;;0.90;;
10523;SDS011;5310;48.638;9.060;2023-12-28T08:46:02;1.00;;;1.00;;
10523;SDS011;5310;48.638;9.060;2023-12-28T08:48:28;0.90;;;0.90;;
10523;SDS011;5310;48.638;9.060;2023-12-28T08:50:54;1.00;;;1.00;;
10523;SDS011;5310;48.638;9.060;2023-12-28T08:53:20;0.90;;;0.90;;
10523;SDS011;5310;48.638;9.060;2023-12-28T08:55:46;1.00;;;1.00;;
10523;SDS011;5310;48.638;9.060;2023-12-28T08:58:12;1.00;;;1.00;;
10523;SDS011;5310;48.638;9.060;2023-12-28T09:00:38;0.90;;;0.90;;
10523;SDS011;5310;48.638;9.060;2023-12-28T09:03:04;1.07;;;1.07;;
10523;SDS011;5310;48.638;9.060;2023-12-28T09:05:29;1.00;;;1.00;;
10523;SDS011;5310;48.638;9.060;2023-12-28T09:07:55;1.13;;;1.13;;
10523;SDS011;5310;48.638;9.060;2023-12-28T09:10:21;1.10;;;1.10;;
10523;SDS011;5310;48.638;9.060;2023-12-28T09:12:47;1.10;;;1.10;;
10523;SDS011;5310;48.638;9.060;2023-12-28T09:15:13;1.00;;;1.00;;
10523;SDS011;5310;48.638;9.060;2023-12-28T09:17:39;1.10;;;1.10;;
10523;SDS011;5310;48.638;9.060;2023-12-28T09:20:05;1.10;;;1.10;;
10523;SDS011;5310;48.638;9.060;2023-12-28T09:22:31;1.00;;;1.00;;
10523;SDS011;5310;48.638;9.060;2023-12-28T09:24:57;1.10;;;1.10;;
10523;SDS011;5310;48.638;9.060;2023-12-28T09:27:23;1.00;;;1.00;;
10523;SDS011;5310;48.638;9.060;2023-12-28T09:29:50;1.10;;;1.10;;
10523;SDS011;5310;48.638;9.060;2023-12-28T09:32:16;1.10;;;1.10;;
10523;SDS011;5310;48.638;9.060;2023-12-28T09:34:42;1.10;;;1.10;;
10523;SDS011;5310;48.638;9.060;2023-12-28T09:37:08;1.00;;;1.00;;
10523;SDS011;5310;48.638;9.060;2023-12-28T09:39:34;1.00;;;1.00;;
10523;SDS011;5310;48.638;9.060;2023-12-28T09:42:03;1.20;;;1.20;;
10523;SDS011;5310;48.638;9.060;2023-12-28T09:44:33;1.10;;;1.10;;
10523;SDS011;5310;48.638;9.060;2023-12-28T09:47:02;1.10;;;1.10;;
10523;SDS011;5310;48.638;9.060;2023-12-28T09:49:30;1.10;;;1.10;;
10523;SDS011;5310;48.638;9.060;2023-12-28T09:51:58;1.00;;;1.00;;
10523;SDS011;5310;48.638;9.060;2023-12-28T09:54:24;1.00;;;1.00;;
10523;SDS011;5310;48.638;9.060;2023-12-28T09:56:49;1.10;;;1.10;;
10523;SDS011;5310;48.638;9.060;2023-12-28T09:59:15;1.10;;;1.10;;
10523;SDS011;5310;48.638;9.060;2023-12-28T10:01:42;1.10;;;1.10;;
10523;SDS011;5310;48.638;9.060;2023-12-28T10:04:08;1.10;;;1.10;;
10523;SDS011;5310;48.638;9.060;2023-12-28T10:06:34;1.10;;;1.10;;
10523;SDS011;5310;48.638;9.060;2023-12-28T10:09:00;1.10;;;1.10;;
10523;SDS011;5310;48.638;9.060;2023-12-28T10:11:26;1.10;;;1.10;;
10523;SDS011;5310;48.638;9.060;2023-12-28T10:13:53;1.00;;;1.00;;
10523;SDS011;5310;48.638;9.060;2023-12-28T10:16:19;1.00;;;1.00;;
10523;SDS011;5310;48.638;9.060;2023-12-28T10:18:45;1.10;;;1.10;;
10523;SDS011;5310;48.638;9.060;2023-12-28T10:21:11;1.00;;;1.00;;
10523;SDS011;5310;48.638;9.060;2023-12-28T10:23:37;1.10;;;1.10;;
10523;SDS011;5310;48.638;9.060;2023-12-28T10:26:04;1.10;;;1.10;;
10523;SDS011;5310;48.638;9.060;2023-12-28T10:28:31;1.10;;;1.10;;
10523;SDS011;5310;48.638;9.060;2023-12-28T10:30:58;1.13;;;1.13;;
10523;SDS011;5310;48.638;9.060;2023-12-28T10:33:25;1.10;;;1.10;;
10523;SDS011;5310;48.638;9.060;2023-12-28T10:35:51;1.00;;;1.00;;
10523;SDS011;5310;48.638;9.060;2023-12-28T10:38:17;1.10;;;1.10;;
10523;SDS011;5310;48.638;9.060;2023-12-28T10:40:44;1.00;;;1.00;;
10523;SDS011;5310;48.638;9.060;2023-12-28T10:43:11;1.00;;;1.00;;
10523;SDS011;5310;48.638;9.060;2023-12-28T10:45:40;1.10;;;1.10;;
10523;SDS011;5310;48.638;9.060;2023-12-28T10:48:09;1.10;;;1.10;;
10523;SDS011;5310;48.638;9.060;2023-12-28T10:50:38;1.00;;;1.00;;
10523;SDS011;5310;48.638;9.060;2023-12-28T10:53:08;1.07;;;1.07;;
10523;SDS011;5310;48.638;9.060;2023-12-28T10:55:40;1.10;;;1.10;;
10523;SDS011;5310;48.638;9.060;2023-12-28T11:00:37;1.00;;;1.00;;
10523;SDS011;5310;48.638;9.060;2023-12-28T11:03:05;1.00;;;1.00;;
10523;SDS011;5310;48.638;9.060;2023-12-28T11:05:33;1.00;;;1.00;;
10523;SDS011;5310;48.638;9.060;2023-12-28T11:08:01;1.00;;;1.00;;
10523;SDS011;5310;48.638;9.060;2023-12-28T11:10:28;1.10;;;1.10;;
10523;SDS011;5310;48.638;9.060;2023-12-28T11:12:56;1.00;;;1.00;;
10523;SDS011;5310;48.638;9.060;2023-12-28T11:15:22;0.90;;;0.90;;
10523;SDS011;5310;48.638;9.060;2023-12-28T11:17:49;1.10;;;1.10;;
10523;SDS011;5310;48.638;9.060;2023-12-28T11:20:15;1.00;;;1.00;;
10523;SDS011;5310;48.638;9.060;2023-12-28T11:22:42;1.00;;;1.00;;
10523;SDS011;5310;48.638;9.060;2023-12-28T11:25:15;1.00;;;1.00;;
10523;SDS011;5310;48.638;9.060;2023-12-28T11:27:43;1.00;;;1.00;;
10523;SDS011;5310;48.638;9.060;2023-12-28T11:30:11;1.00;;;1.00;;
10523;SDS011;5310;48.638;9.060;2023-12-28T11:32:37;1.00;;;1.00;;
10523;SDS011;5310;48.638;9.060;2023-12-28T11:35:05;0.90;;;0.90;;
10523;SDS011;5310;48.638;9.060;2023-12-28T11:37:34;1.07;;;1.07;;
10523;SDS011;5310;48.638;9.060;2023-12-28T11:40:13;0.97;;;0.97;;
10523;SDS011;5310;48.638;9.060;2023-12-28T11:42:51;1.00;;;1.00;;
10523;SDS011;5310;48.638;9.060;2023-12-28T11:45:18;1.00;;;1.00;;
10523;SDS011;5310;48.638;9.060;2023-12-28T11:47:44;0.90;;;0.90;;
10523;SDS011;5310;48.638;9.060;2023-12-28T11:50:10;1.00;;;1.00;;
10523;SDS011;5310;48.638;9.060;2023-12-28T11:52:37;0.90;;;0.90;;
10523;SDS011;5310;48.638;9.060;2023-12-28T11:55:03;1.10;;;1.10;;
10523;SDS011;5310;48.638;9.060;2023-12-28T11:57:30;0.90;;;0.90;;
10523;SDS011;5310;48.638;9.060;2023-12-28T12:00:00;0.90;;;0.90;;
10523;SDS011;5310;48.638;9.060;2023-12-28T12:02:27;1.00;;;1.00;;
10523;SDS011;5310;48.638;9.060;2023-12-28T12:04:54;0.90;;;0.90;;
10523;SDS011;5310;48.638;9.060;2023-12-28T12:07:22;1.10;;;1.10;;
10523;SDS011;5310;48.638;9.060;2023-12-28T12:09:48;1.10;;;1.10;;
10523;SDS011;5310;48.638;9.060;2023-12-28T12:12:15;0.93;;;0.93;;
10523;SDS011;5310;48.638;9.060;2023-12-28T12:14:42;0.90;;;0.90;;
10523;SDS011;5310;48.638;9.060;2023-12-28T12:17:08;1.00;;;1.00;;
10523;SDS011;5310;48.638;9.060;2023-12-28T12:19:34;1.00;;;1.00;;
10523;SDS011;5310;48.638;9.060;2023-12-28T12:22:00;1.10;;;1.10;;
10523;SDS011;5310;48.638;9.060;2023-12-28T12:24:26;1.00;;;1.00;;
10523;SDS011;5310;48.638;9.060;2023-12-28T12:26:52;1.00;;;1.00;;
10523;SDS011;5310;48.638;9.060;2023-12-28T12:29:18;1.00;;;1.00;;
10523;SDS011;5310;48.638;9.060;2023-12-28T12:31:46;1.00;;;1.00;;
10523;SDS011;5310;48.638;9.060;2023-12-28T12:34:16;1.00;;;1.00;;
10523;SDS011;5310;48.638;9.060;2023-12-28T12:36:42;1.00;;;1.00;;
10523;SDS011;5310;48.638;9.060;2023-12-28T12:39:12;1.10;;;1.10;;
10523;SDS011;5310;48.638;9.060;2023-12-28T12:41:38;1.00;;;1.00;;
10523;SDS011;5310;48.638;9.060;2023-12-28T12:44:04;1.10;;;1.10;;
10523;SDS011;5310;48.638;9.060;2023-12-28T12:46:30;1.00;;;1.00;;
10523;SDS011;5310;48.638;9.060;2023-12-28T12:48:56;1.00;;;1.00;;
10523;SDS011;5310;48.638;9.060;2023-12-28T12:51:22;0.90;;;0.90;;
10523;SDS011;5310;48.638;9.060;2023-12-28T12:53:48;1.00;;;1.00;;
10523;SDS011;5310;48.638;9.060;2023-12-28T12:56:14;1.00;;;1.00;;
10523;SDS011;5310;48.638;9.060;2023-12-28T12:58:42;0.90;;;0.90;;
10523;SDS011;5310;48.638;9.060;2023-12-28T13:01:12;1.00;;;1.00;;
10523;SDS011;5310;48.638;9.060;2023-12-28T13:03:37;1.00;;;1.00;;
10523;SDS011;5310;48.638;9.060;2023-12-28T13:06:04;0.90;;;0.90;;
10523;SDS011;5310;48.638;9.060;2023-12-28T13:08:30;1.00;;;1.00;;
10523;SDS011;5310;48.638;9.060;2023-12-28T13:10:56;1.00;;;1.00;;
10523;SDS011;5310;48.638;9.060;2023-12-28T13:13:21;0.83;;;0.83;;
10523;SDS011;5310;48.638;9.060;2023-12-28T13:15:47;1.00;;;1.00;;
10523;SDS011;5310;48.638;9.060;2023-12-28T13:18:13;1.00;;;1.00;;
10523;SDS011;5310;48.638;9.060;2023-12-28T13:20:39;1.00;;;1.00;;
10523;SDS011;5310;48.638;9.060;2023-12-28T13:23:07;1.00;;;1.00;;
10523;SDS011;5310;48.638;9.060;2023-12-28T13:25:33;1.00;;;1.00;;
10523;SDS011;5310;48.638;9.060;2023-12-28T13:27:59;1.00;;;1.00;;
10523;SDS011;5310;48.638;9.060;2023-12-28T13:30:25;0.90;;;0.90;;
10523;SDS011;5310;48.638;9.060;2023-12-28T13:32:53;0.90;;;0.90;;
10523;SDS011;5310;48.638;9.060;2023-12-28T13:35:21;1.00;;;1.00;;
10523;SDS011;5310;48.638;9.060;2023-12-28T13:37:47;1.00;;;1.00;;
10523;SDS011;5310;48.638;9.060;2023-12-28T13:40:13;1.00;;;1.00;;
10523;SDS011;5310;48.638;9.060;2023-12-28T13:42:40;0.90;;;0.90;;
10523;SDS011;5310;48.638;9.060;2023-12-28T13:45:06;1.00;;;1.00;;
10523;SDS011;5310;48.638;9.060;2023-12-28T13:47:32;0.90;;;0.90;;
10523;SDS011;5310;48.638;9.060;2023-12-28T13:49:58;1.00;;;1.00;;
10523;SDS011;5310;48.638;9.060;2023-12-28T13:52:24;0.90;;;0.90;;
10523;SDS011;5310;48.638;9.060;2023-12-28T13:54:50;0.97;;;0.97;;
10523;SDS011;5310;48.638;9.060;2023-12-28T13:57:16;0.90;;;0.90;;
10523;SDS011;5310;48.638;9.060;2023-12-28T13:59:42;0.90;;;0.90;;
10523;SDS011;5310;48.638;9.060;2023-12-28T14:02:08;1.10;;;1.10;;
10523;SDS011;5310;48.638;9.060;2023-12-28T14:04:34;0.90;;;0.90;;
10523;SDS011;5310;48.638;9.060;2023-12-28T14:07:00;1.00;;;1.00;;
10523;SDS011;5310;48.638;9.060;2023-12-28T14:09:26;0.90;;;0.90;;
10523;SDS011;5310;48.638;9.060;2023-12-28T14:11:55;1.00;;;1.00;;
10523;SDS011;5310;48.638;9.060;2023-12-28T14:14:21;0.97;;;0.97;;
10523;SDS011;5310;48.638;9.060;2023-12-28T14:16:47;0.90;;;0.90;;
10523;SDS011;5310;48.638;9.060;2023-12-28T14:19:13;1.00;;;1.00;;
10523;SDS011;5310;48.638;9.060;2023-12-28T14:21:39;0.90;;;0.90;;
10523;SDS011;5310;48.638;9.060;2023-12-28T14:24:05;1.00;;;1.00;;
10523;SDS011;5310;48.638;9.060;2023-12-28T14:26:32;0.90;;;0.90;;
10523;SDS011;5310;48.638;9.060;2023-12-28T14:29:00;1.00;;;1.00;;
10523;SDS011;5310;48.638;9.060;2023-12-28T14:31:31;1.10;;;1.10;;
10523;SDS011;5310;48.638;9.060;2023-12-28T14:33:57;1.10;;;1.10;;
10523;SDS011;5310;48.638;9.060;2023-12-28T14:36:26;1.00;;;1.00;;
10523;SDS011;5310;48.638;9.060;2023-12-28T14:38:53;1.00;;;1.00;;
10523;SDS011;5310;48.638;9.060;2023-12-28T14:41:20;1.00;;;1.00;;
10523;SDS011;5310;48.638;9.060;2023-12-28T14:43:46;1.00;;;1.00;;
10523;SDS011;5310;48.638;9.060;2023-12-28T14:46:12;1.10;;;1.10;;
10523;SDS011;5310;48.638;9.060;2023-12-28T14:48:38;1.10;;;1.10;;
10523;SDS011;5310;48.638;9.060;2023-12-28T14:51:04;1.00;;;1.00;;
10523;SDS011;5310;48.638;9.060;2023-12-28T14:53:30;1.10;;;1.10;;
10523;SDS011;5310;48.638;9.060;2023-12-28T14:55:55;1.00;;;1.00;;
10523;SDS011;5310;48.638;9.060;2023-12-28T14:58:21;1.10;;;1.10;;
10523;SDS011;5310;48.638;9.060;2023-12-28T15:00:48;1.00;;;1.00;;
10523;SDS011;5310;48.638;9.060;2023-12-28T15:03:14;1.10;;;1.10;;